MAPA DE AEROPUERTO

INFORMACIÓN METAR y TAF

METAR FOR LEVX
ADDS - METARS form results

(2322 UTC 21 January 2021)
Data provider http://aviationweather.gov/metar/data/
 
METAR text: LEVX 212300Z 25023G38KT 210V290 6000 TSRA FEW009 BKN014 BKN020CB 11/09 Q1001 NOSIG
Conditions at: LEVX (VIGO/PEINADOR , ES) observed 2300 UTC 21 January 2021
Temperature: 11.0°C (52°F)
Dewpoint: 9.0°C (48°F) [RH = 87%]
Pressure (altimeter): 29.56 inches Hg (1001.0 mb)
Winds: from the WSW (250 degrees) at 26 MPH (23 knots; 11.8 m/s)
gusting to 44 MPH (38 knots; 19.5 m/s)
Visibility: 4 miles ( 6 km)
Ceiling: 1400 feet AGL
Clouds: few clouds at 900 feet AGL
broken clouds at 1400 feet AGL
broken clouds at 2000 feet AGL
Weather: TSRA  (rain associated with thunderstorm(s))

METAR text: LEVX 212245Z 22029G49KT 190V260 0800 R19/1700D R01/1800D +TSRA BKN015 BKN023CB BKN031 12/12 Q1000 NOSIG
Conditions at: LEVX (VIGO/PEINADOR , ES) observed 2245 UTC 21 January 2021
Temperature: 12.0°C (54°F)
Dewpoint: 12.0°C (54°F) [RH = 100%]
Pressure (altimeter): 29.53 inches Hg (1000.0 mb)
Winds: from the SW (220 degrees) at 33 MPH (29 knots; 14.9 m/s)
gusting to 56 MPH (49 knots; 25.2 m/s)
Visibility: 0.50 miles (0.80 km)
Ceiling: 1500 feet AGL
Clouds: broken clouds at 1500 feet AGL
broken clouds at 2300 feet AGL
broken clouds at 3100 feet AGL
Weather: +TSRA  (heavy rain associated with thunderstorm(s))

METAR text: LEVX 212230Z 21026G42KT 180V240 2000 RA BKN017 BKN020 BKN028 12/11 Q1000 TEMPO BKN010
Conditions at: LEVX (VIGO/PEINADOR , ES) observed 2230 UTC 21 January 2021
Temperature: 12.0°C (54°F)
Dewpoint: 11.0°C (52°F) [RH = 94%]
Pressure (altimeter): 29.53 inches Hg (1000.0 mb)
Winds: from the SSW (210 degrees) at 30 MPH (26 knots; 13.4 m/s)
gusting to 48 MPH (42 knots; 21.6 m/s)
Visibility: 1.24 miles (2.00 km)
Ceiling: 1700 feet AGL
Clouds: broken clouds at 1700 feet AGL
broken clouds at 2000 feet AGL
broken clouds at 2800 feet AGL
Weather: RA  (moderate rain)

Forecast for: LEVX (VIGO/PEINADOR , ES)
Text: TAF LEVX 211700Z 2118/2218 21012KT 9000 SCT010 BKN025 TX13/2214Z TN06/2205Z
Forecast period: 1800 to 2200 UTC 21 January 2021
Forecast type: FROM: standard forecast or significant change
Winds: from the SSW (210 degrees) at 14 MPH (12 knots; 6.2 m/s)
Visibility: 6 miles (9 km)
Ceiling: 2500 feet AGL
Clouds: scattered clouds at 1000 feet AGL
broken clouds at 2500 feet AGL
Weather: no significant weather forecast for this period
Text: TEMPO 2118/2215 3000 RA SHRA BKN010 SCT030TCU
Forecast period: 1800 UTC 21 January 2021 to 1500 UTC 22 January 2021
Forecast type: TEMPORARY: The following changes expected for less than half the time period
Visibility: 1.86 miles (2.99 km)
Ceiling: 1000 feet AGL
Clouds: broken clouds at 1000 feet AGL
scattered clouds at 3000 feet AGL
Weather: RA SHRA  (moderate rain, rain showers)
Text: TEMPO 2118/2202 23016G30KT
Forecast period: 1800 UTC 21 January 2021 to 0200 UTC 22 January 2021
Forecast type: TEMPORARY: The following changes expected for less than half the time period
Winds: from the SW (230 degrees) at 18 MPH (16 knots; 8.2 m/s)
gusting to 34 MPH (30 knots; 15.4 m/s)
Visibility: missing
Ceiling: unknown
Clouds: missing
Weather: no significant weather forecast for this period
Text: PROB40
Forecast period: 2200 UTC 21 January 2021 to 0500 UTC 22 January 2021
Forecast type: TEMPORARY: The following changes expected for less than half the time period
Winds: from the W (260 degrees) at 29 MPH (25 knots; 12.9 m/s)
gusting to 52 MPH (45 knots; 23.1 m/s)
Visibility: missing
Ceiling: at least 12,000 feet AGL
Clouds: scattered clouds at 3000 feet AGL
Weather: TS  (thunderstorm)
Text: TEMPO 2122/2205 26025G45KT TS SCT030CB
Forecast period: 2200 UTC 21 January 2021 to 1800 UTC 22 January 2021
Forecast type: BECOMING: Conditions expected to become as follows by 0200 UTC 22 January 2021
Winds: from the W (270 degrees) at 10 MPH (9 knots; 4.6 m/s)
Visibility: 6 miles (9 km)
Ceiling: 2500 feet AGL
Clouds: scattered clouds at 1000 feet AGL
broken clouds at 2500 feet AGL
Weather: no significant weather forecast for this period
Text: BECMG 2122/2202 27009KT
Forecast period: 0000 to 0800 UTC 22 January 2021
Forecast type: TEMPORARY: The following changes expected for less than half the time period
Visibility: 0.50 miles (0.80 km)
Ceiling: 200 feet AGL
Clouds: broken clouds at 200 feet AGL
Weather: BCFG  (patches of fog)